sensor_id;sensor_type;location;lat;lon;timestamp;P1;durP1;ratioP1;P2;durP2;ratioP2
9465;SDS011;4771;48.726;9.006;2022-08-27T15:42:40;25.00;;;20.92;;
9465;SDS011;4771;48.726;9.006;2022-08-27T15:45:08;23.85;;;21.33;;
9465;SDS011;4771;48.726;9.006;2022-08-27T15:47:37;22.48;;;20.13;;
9465;SDS011;4771;48.726;9.006;2022-08-27T15:50:04;38.13;;;21.85;;
9465;SDS011;4771;48.726;9.006;2022-08-27T15:52:32;24.60;;;21.55;;
9465;SDS011;4771;48.726;9.006;2022-08-27T15:55:00;25.13;;;21.58;;
9465;SDS011;4771;48.726;9.006;2022-08-27T15:57:27;23.50;;;21.00;;
9465;SDS011;4771;48.726;9.006;2022-08-27T15:59:55;24.38;;;20.60;;
9465;SDS011;4771;48.726;9.006;2022-08-27T16:02:22;27.75;;;21.77;;
9465;SDS011;4771;48.726;9.006;2022-08-27T16:04:49;23.80;;;21.27;;
9465;SDS011;4771;48.726;9.006;2022-08-27T16:07:16;22.95;;;20.55;;
9465;SDS011;4771;48.726;9.006;2022-08-27T16:09:45;23.90;;;21.48;;
9465;SDS011;4771;48.726;9.006;2022-08-27T16:12:12;23.52;;;20.45;;
9465;SDS011;4771;48.726;9.006;2022-08-27T16:14:40;22.83;;;20.38;;
9465;SDS011;4771;48.726;9.006;2022-08-27T16:17:08;24.60;;;22.00;;
9465;SDS011;4771;48.726;9.006;2022-08-27T16:19:36;25.13;;;22.02;;
9465;SDS011;4771;48.726;9.006;2022-08-27T16:22:05;28.33;;;21.75;;
9465;SDS011;4771;48.726;9.006;2022-08-27T16:24:32;25.85;;;23.13;;
9465;SDS011;4771;48.726;9.006;2022-08-27T16:26:59;26.50;;;23.45;;
9465;SDS011;4771;48.726;9.006;2022-08-27T16:29:26;30.05;;;24.40;;
9465;SDS011;4771;48.726;9.006;2022-08-27T16:31:53;25.27;;;22.67;;
9465;SDS011;4771;48.726;9.006;2022-08-27T16:34:23;27.67;;;23.30;;
9465;SDS011;4771;48.726;9.006;2022-08-27T16:36:51;26.95;;;23.73;;
9465;SDS011;4771;48.726;9.006;2022-08-27T16:39:18;25.70;;;23.10;;
9465;SDS011;4771;48.726;9.006;2022-08-27T16:41:45;28.08;;;23.33;;
9465;SDS011;4771;48.726;9.006;2022-08-27T16:44:12;27.55;;;24.63;;
9465;SDS011;4771;48.726;9.006;2022-08-27T16:46:40;24.95;;;22.45;;
9465;SDS011;4771;48.726;9.006;2022-08-27T16:49:07;25.63;;;22.95;;
9465;SDS011;4771;48.726;9.006;2022-08-27T16:51:53;26.52;;;22.05;;
9465;SDS011;4771;48.726;9.006;2022-08-27T16:54:19;27.10;;;23.38;;
9465;SDS011;4771;48.726;9.006;2022-08-27T16:56:46;26.85;;;24.15;;
9465;SDS011;4771;48.726;9.006;2022-08-27T16:59:13;27.65;;;23.75;;
9465;SDS011;4771;48.726;9.006;2022-08-27T17:01:40;27.80;;;24.05;;
9465;SDS011;4771;48.726;9.006;2022-08-27T17:04:08;27.23;;;24.45;;
9465;SDS011;4771;48.726;9.006;2022-08-27T17:06:35;30.80;;;25.33;;
9465;SDS011;4771;48.726;9.006;2022-08-27T17:09:03;31.27;;;26.58;;
9465;SDS011;4771;48.726;9.006;2022-08-27T17:11:31;30.45;;;26.70;;
9465;SDS011;4771;48.726;9.006;2022-08-27T17:14:00;29.20;;;26.20;;
9465;SDS011;4771;48.726;9.006;2022-08-27T17:16:29;29.52;;;26.45;;
9465;SDS011;4771;48.726;9.006;2022-08-27T17:18:58;32.95;;;25.55;;
9465;SDS011;4771;48.726;9.006;2022-08-27T17:21:26;29.88;;;25.02;;
9465;SDS011;4771;48.726;9.006;2022-08-27T17:23:55;31.25;;;27.00;;
9465;SDS011;4771;48.726;9.006;2022-08-27T17:26:27;30.05;;;26.88;;
9465;SDS011;4771;48.726;9.006;2022-08-27T17:28:55;29.50;;;26.38;;
9465;SDS011;4771;48.726;9.006;2022-08-27T17:31:23;30.65;;;25.45;;
9465;SDS011;4771;48.726;9.006;2022-08-27T17:33:54;29.77;;;25.63;;
9465;SDS011;4771;48.726;9.006;2022-08-27T17:36:22;29.40;;;26.13;;
9465;SDS011;4771;48.726;9.006;2022-08-27T17:38:49;27.52;;;24.88;;
9465;SDS011;4771;48.726;9.006;2022-08-27T17:41:19;29.05;;;26.00;;
9465;SDS011;4771;48.726;9.006;2022-08-27T17:43:50;31.05;;;25.95;;
9465;SDS011;4771;48.726;9.006;2022-08-27T17:46:17;29.80;;;25.48;;
9465;SDS011;4771;48.726;9.006;2022-08-27T17:48:44;28.50;;;25.55;;
9465;SDS011;4771;48.726;9.006;2022-08-27T17:51:11;30.30;;;25.58;;
9465;SDS011;4771;48.726;9.006;2022-08-27T17:53:41;28.70;;;25.75;;
9465;SDS011;4771;48.726;9.006;2022-08-27T17:56:11;30.42;;;27.02;;
9465;SDS011;4771;48.726;9.006;2022-08-27T17:58:38;29.38;;;26.23;;
9465;SDS011;4771;48.726;9.006;2022-08-27T18:01:06;28.95;;;25.77;;
9465;SDS011;4771;48.726;9.006;2022-08-27T18:03:33;29.02;;;25.88;;
9465;SDS011;4771;48.726;9.006;2022-08-27T18:06:00;32.05;;;25.13;;
9465;SDS011;4771;48.726;9.006;2022-08-27T18:08:27;29.88;;;26.67;;
9465;SDS011;4771;48.726;9.006;2022-08-27T18:10:54;31.67;;;28.20;;
9465;SDS011;4771;48.726;9.006;2022-08-27T18:13:21;29.83;;;26.75;;
9465;SDS011;4771;48.726;9.006;2022-08-27T18:15:48;31.73;;;28.15;;
9465;SDS011;4771;48.726;9.006;2022-08-27T18:18:17;31.05;;;26.95;;
9465;SDS011;4771;48.726;9.006;2022-08-27T18:20:44;29.83;;;26.65;;
9465;SDS011;4771;48.726;9.006;2022-08-27T18:23:11;28.42;;;25.50;;
9465;SDS011;4771;48.726;9.006;2022-08-27T18:25:38;33.53;;;27.48;;
9465;SDS011;4771;48.726;9.006;2022-08-27T18:28:07;28.95;;;25.80;;
9465;SDS011;4771;48.726;9.006;2022-08-27T18:30:36;31.27;;;27.88;;
9465;SDS011;4771;48.726;9.006;2022-08-27T18:33:05;30.63;;;27.42;;
9465;SDS011;4771;48.726;9.006;2022-08-27T18:35:34;29.35;;;26.42;;
9465;SDS011;4771;48.726;9.006;2022-08-27T18:38:01;31.30;;;27.27;;
9465;SDS011;4771;48.726;9.006;2022-08-27T18:40:29;30.98;;;27.65;;
9465;SDS011;4771;48.726;9.006;2022-08-27T18:43:00;35.30;;;30.15;;
9465;SDS011;4771;48.726;9.006;2022-08-27T18:45:28;31.10;;;27.73;;
9465;SDS011;4771;48.726;9.006;2022-08-27T18:47:56;30.60;;;27.35;;
9465;SDS011;4771;48.726;9.006;2022-08-27T18:50:24;33.17;;;27.02;;
9465;SDS011;4771;48.726;9.006;2022-08-27T18:52:53;30.73;;;27.52;;
9465;SDS011;4771;48.726;9.006;2022-08-27T18:55:22;29.00;;;25.90;;
9465;SDS011;4771;48.726;9.006;2022-08-27T18:57:52;30.70;;;27.48;;
9465;SDS011;4771;48.726;9.006;2022-08-27T19:00:19;31.30;;;28.10;;
9465;SDS011;4771;48.726;9.006;2022-08-27T19:02:47;30.67;;;27.58;;
9465;SDS011;4771;48.726;9.006;2022-08-27T19:05:15;29.63;;;26.52;;
9465;SDS011;4771;48.726;9.006;2022-08-27T19:07:45;28.80;;;24.77;;
9465;SDS011;4771;48.726;9.006;2022-08-27T19:10:13;31.15;;;26.20;;
9465;SDS011;4771;48.726;9.006;2022-08-27T19:12:40;27.73;;;25.00;;
9465;SDS011;4771;48.726;9.006;2022-08-27T19:15:07;30.02;;;26.92;;
9465;SDS011;4771;48.726;9.006;2022-08-27T19:17:36;29.20;;;26.10;;
9465;SDS011;4771;48.726;9.006;2022-08-27T19:20:05;28.38;;;25.13;;
9465;SDS011;4771;48.726;9.006;2022-08-27T19:22:33;29.63;;;26.52;;
9465;SDS011;4771;48.726;9.006;2022-08-27T19:24:59;27.08;;;24.48;;
9465;SDS011;4771;48.726;9.006;2022-08-27T19:27:28;28.55;;;25.65;;
9465;SDS011;4771;48.726;9.006;2022-08-27T19:29:55;28.95;;;26.00;;
9465;SDS011;4771;48.726;9.006;2022-08-27T19:32:22;28.92;;;25.92;;
9465;SDS011;4771;48.726;9.006;2022-08-27T19:34:49;27.27;;;24.50;;
9465;SDS011;4771;48.726;9.006;2022-08-27T19:37:18;28.38;;;25.35;;
9465;SDS011;4771;48.726;9.006;2022-08-27T19:39:48;27.73;;;25.02;;
9465;SDS011;4771;48.726;9.006;2022-08-27T19:42:15;27.35;;;24.42;;
9465;SDS011;4771;48.726;9.006;2022-08-27T19:44:43;35.03;;;26.10;;
9465;SDS011;4771;48.726;9.006;2022-08-27T19:47:10;29.60;;;26.25;;
9465;SDS011;4771;48.726;9.006;2022-08-27T19:49:39;27.13;;;24.33;;
9465;SDS011;4771;48.726;9.006;2022-08-27T19:52:09;27.45;;;24.65;;
9465;SDS011;4771;48.726;9.006;2022-08-27T19:54:35;28.17;;;25.30;;
9465;SDS011;4771;48.726;9.006;2022-08-27T19:57:02;28.40;;;25.10;;
9465;SDS011;4771;48.726;9.006;2022-08-27T19:59:29;29.45;;;26.45;;
9465;SDS011;4771;48.726;9.006;2022-08-27T20:01:58;29.73;;;26.83;;
9465;SDS011;4771;48.726;9.006;2022-08-27T20:04:25;28.45;;;25.45;;
9465;SDS011;4771;48.726;9.006;2022-08-27T20:06:52;28.20;;;25.40;;
9465;SDS011;4771;48.726;9.006;2022-08-27T20:09:19;28.92;;;26.02;;
9465;SDS011;4771;48.726;9.006;2022-08-27T20:11:48;28.17;;;25.20;;
9465;SDS011;4771;48.726;9.006;2022-08-27T20:14:16;30.33;;;26.65;;
9465;SDS011;4771;48.726;9.006;2022-08-27T20:16:43;32.38;;;25.85;;
9465;SDS011;4771;48.726;9.006;2022-08-27T20:19:12;29.38;;;25.27;;
9465;SDS011;4771;48.726;9.006;2022-08-27T20:21:39;28.50;;;25.50;;
9465;SDS011;4771;48.726;9.006;2022-08-27T20:24:06;28.83;;;26.02;;
9465;SDS011;4771;48.726;9.006;2022-08-27T20:26:33;28.75;;;25.67;;
9465;SDS011;4771;48.726;9.006;2022-08-27T20:29:01;27.83;;;25.13;;
9465;SDS011;4771;48.726;9.006;2022-08-27T20:31:28;29.77;;;26.23;;
9465;SDS011;4771;48.726;9.006;2022-08-27T20:33:55;28.08;;;25.10;;
9465;SDS011;4771;48.726;9.006;2022-08-27T20:36:24;29.77;;;26.67;;
9465;SDS011;4771;48.726;9.006;2022-08-27T20:38:53;28.08;;;25.30;;
9465;SDS011;4771;48.726;9.006;2022-08-27T20:41:20;27.90;;;25.02;;
9465;SDS011;4771;48.726;9.006;2022-08-27T20:43:47;28.40;;;25.38;;
9465;SDS011;4771;48.726;9.006;2022-08-27T20:46:15;26.40;;;23.90;;
9465;SDS011;4771;48.726;9.006;2022-08-27T20:48:45;27.67;;;23.85;;
9465;SDS011;4771;48.726;9.006;2022-08-27T20:51:12;28.83;;;24.48;;
9465;SDS011;4771;48.726;9.006;2022-08-27T20:53:40;26.08;;;23.58;;
9465;SDS011;4771;48.726;9.006;2022-08-27T20:56:07;28.15;;;25.25;;
9465;SDS011;4771;48.726;9.006;2022-08-27T20:58:34;27.67;;;24.10;;
9465;SDS011;4771;48.726;9.006;2022-08-27T21:01:19;28.60;;;25.58;;
9465;SDS011;4771;48.726;9.006;2022-08-27T21:03:46;28.20;;;25.25;;
9465;SDS011;4771;48.726;9.006;2022-08-27T21:06:13;28.55;;;24.65;;
9465;SDS011;4771;48.726;9.006;2022-08-27T21:08:41;27.23;;;24.42;;
9465;SDS011;4771;48.726;9.006;2022-08-27T21:11:09;28.75;;;25.58;;
9465;SDS011;4771;48.726;9.006;2022-08-27T21:13:37;29.88;;;26.42;;
9465;SDS011;4771;48.726;9.006;2022-08-27T21:16:04;28.70;;;25.58;;
9465;SDS011;4771;48.726;9.006;2022-08-27T21:18:32;27.50;;;24.50;;
9465;SDS011;4771;48.726;9.006;2022-08-27T21:20:59;29.83;;;26.77;;
9465;SDS011;4771;48.726;9.006;2022-08-27T21:23:27;30.55;;;26.40;;
9465;SDS011;4771;48.726;9.006;2022-08-27T21:25:57;27.83;;;24.95;;
9465;SDS011;4771;48.726;9.006;2022-08-27T21:28:26;28.30;;;25.27;;
9465;SDS011;4771;48.726;9.006;2022-08-27T21:30:53;29.98;;;26.70;;
9465;SDS011;4771;48.726;9.006;2022-08-27T21:33:20;28.30;;;25.38;;
9465;SDS011;4771;48.726;9.006;2022-08-27T21:35:47;27.48;;;24.67;;
9465;SDS011;4771;48.726;9.006;2022-08-27T21:38:14;26.63;;;23.23;;
9465;SDS011;4771;48.726;9.006;2022-08-27T21:40:42;27.00;;;23.65;;
9465;SDS011;4771;48.726;9.006;2022-08-27T21:43:10;26.33;;;23.65;;
9465;SDS011;4771;48.726;9.006;2022-08-27T21:45:37;27.25;;;24.40;;
9465;SDS011;4771;48.726;9.006;2022-08-27T21:48:05;27.95;;;25.05;;
9465;SDS011;4771;48.726;9.006;2022-08-27T21:50:32;28.05;;;25.25;;
9465;SDS011;4771;48.726;9.006;2022-08-27T21:52:59;26.58;;;23.88;;
9465;SDS011;4771;48.726;9.006;2022-08-27T21:55:26;28.13;;;25.10;;
9465;SDS011;4771;48.726;9.006;2022-08-27T21:57:53;27.13;;;24.27;;
9465;SDS011;4771;48.726;9.006;2022-08-27T22:00:31;29.13;;;26.05;;
9465;SDS011;4771;48.726;9.006;2022-08-27T22:03:04;30.83;;;27.58;;
9465;SDS011;4771;48.726;9.006;2022-08-27T22:05:33;32.20;;;27.63;;
9465;SDS011;4771;48.726;9.006;2022-08-27T22:08:00;30.17;;;25.83;;
9465;SDS011;4771;48.726;9.006;2022-08-27T22:10:27;28.60;;;25.45;;
9465;SDS011;4771;48.726;9.006;2022-08-27T22:12:54;30.83;;;26.17;;
9465;SDS011;4771;48.726;9.006;2022-08-27T22:15:22;27.73;;;24.88;;
9465;SDS011;4771;48.726;9.006;2022-08-27T22:17:49;29.83;;;25.52;;
9465;SDS011;4771;48.726;9.006;2022-08-27T22:20:16;28.27;;;25.40;;
9465;SDS011;4771;48.726;9.006;2022-08-27T22:22:44;28.63;;;25.60;;
9465;SDS011;4771;48.726;9.006;2022-08-27T22:25:10;33.75;;;26.33;;
9465;SDS011;4771;48.726;9.006;2022-08-27T22:27:38;27.92;;;25.08;;
9465;SDS011;4771;48.726;9.006;2022-08-27T22:30:06;27.52;;;24.80;;
9465;SDS011;4771;48.726;9.006;2022-08-27T22:32:35;26.13;;;23.45;;
9465;SDS011;4771;48.726;9.006;2022-08-27T22:35:03;28.15;;;25.17;;
9465;SDS011;4771;48.726;9.006;2022-08-27T22:37:30;29.27;;;25.88;;
9465;SDS011;4771;48.726;9.006;2022-08-27T22:39:57;29.23;;;26.10;;
9465;SDS011;4771;48.726;9.006;2022-08-27T22:42:24;29.58;;;26.33;;
9465;SDS011;4771;48.726;9.006;2022-08-27T22:44:51;29.55;;;26.27;;
9465;SDS011;4771;48.726;9.006;2022-08-27T22:47:18;29.75;;;25.95;;
9465;SDS011;4771;48.726;9.006;2022-08-27T22:49:46;27.77;;;24.77;;
9465;SDS011;4771;48.726;9.006;2022-08-27T22:52:13;27.08;;;24.27;;
9465;SDS011;4771;48.726;9.006;2022-08-27T22:54:40;27.50;;;24.67;;
9465;SDS011;4771;48.726;9.006;2022-08-27T22:57:07;27.30;;;24.50;;
9465;SDS011;4771;48.726;9.006;2022-08-27T22:59:34;25.52;;;22.90;;
9465;SDS011;4771;48.726;9.006;2022-08-27T23:02:01;27.08;;;24.08;;
9465;SDS011;4771;48.726;9.006;2022-08-27T23:04:31;27.65;;;24.73;;
9465;SDS011;4771;48.726;9.006;2022-08-27T23:06:59;26.77;;;23.98;;
9465;SDS011;4771;48.726;9.006;2022-08-27T23:09:26;26.48;;;23.77;;
9465;SDS011;4771;48.726;9.006;2022-08-27T23:11:53;27.10;;;24.38;;
9465;SDS011;4771;48.726;9.006;2022-08-27T23:14:21;27.52;;;23.08;;
9465;SDS011;4771;48.726;9.006;2022-08-27T23:16:48;28.67;;;25.58;;
9465;SDS011;4771;48.726;9.006;2022-08-27T23:19:15;29.25;;;24.30;;
9465;SDS011;4771;48.726;9.006;2022-08-27T23:21:42;30.75;;;25.50;;
9465;SDS011;4771;48.726;9.006;2022-08-27T23:24:11;27.13;;;23.65;;
9465;SDS011;4771;48.726;9.006;2022-08-27T23:26:38;25.85;;;23.15;;
9465;SDS011;4771;48.726;9.006;2022-08-27T23:29:22;26.48;;;23.55;;
9465;SDS011;4771;48.726;9.006;2022-08-27T23:31:49;25.10;;;22.45;;
9465;SDS011;4771;48.726;9.006;2022-08-27T23:34:17;26.20;;;22.30;;
9465;SDS011;4771;48.726;9.006;2022-08-27T23:36:45;24.77;;;22.27;;
9465;SDS011;4771;48.726;9.006;2022-08-27T23:39:13;25.35;;;22.73;;
9465;SDS011;4771;48.726;9.006;2022-08-27T23:41:41;24.98;;;22.38;;
9465;SDS011;4771;48.726;9.006;2022-08-27T23:44:09;25.92;;;23.20;;
9465;SDS011;4771;48.726;9.006;2022-08-27T23:46:36;26.80;;;23.42;;
9465;SDS011;4771;48.726;9.006;2022-08-27T23:49:03;26.98;;;21.05;;
9465;SDS011;4771;48.726;9.006;2022-08-27T23:51:30;25.85;;;23.05;;
9465;SDS011;4771;48.726;9.006;2022-08-27T23:53:58;28.20;;;22.75;;
9465;SDS011;4771;48.726;9.006;2022-08-27T23:56:26;24.15;;;21.63;;
9465;SDS011;4771;48.726;9.006;2022-08-27T23:58:53;23.70;;;21.20;;
